• Join FlightAware (Why Join?)
  • Login
  • US Flag 
Gobble Gobble! 
08:53AM EST


 

Airport Tracker/Info


-or-


 

Live Flight TrackerFlight Track Log ✈ VH-DYH ✈ 06-May-2013 ✈ YMOU - YBAF

Flight Track Log - Related Links

Times and Time Zones

All times are in EDT time to prevent confusion due to time zone crossing. See the VH-DYH flight status page for this flight to view local times or setup timezone preferences in your user account.

Time Position Orientation Groundspeed Altitude Reporting Facility
EDT Latitude Longitude Course Direction KTS MPH feet Rate Location/Type
10:22PM -24.7971 150.1670 317° Northwest 7,000  Level Aus ATC (Calculated)
10:23PM -24.6858 150.0510 143° Southeast 98 113 3,200 -2,520 Descending Aus ATC (RADAR)
10:23PM -24.6994 150.0624 143° Southeast 104 120 3,500 480 Climbing Aus ATC (RADAR)
10:24PM -24.7185 150.0788 142° Southeast 114 131 3,900 480 Climbing Aus ATC (RADAR)
10:25PM -24.7290 150.0884 140° Southeast 116 133 4,100 480 Climbing Aus ATC (RADAR)
10:25PM -24.7446 150.1023 141° Southeast 122 140 4,400 480 Climbing Aus ATC (RADAR)
10:26PM -24.7700 150.1259 140° Southeast 123 142 4,900 480 Climbing Aus ATC (RADAR)
10:27PM -24.7813 150.1368 139° Southeast 127 146 5,100 480 Climbing Aus ATC (RADAR)
10:27PM -24.7964 150.1533 135° Southeast 130 150 5,400 480 Climbing Aus ATC (RADAR)
10:28PM -24.8156 150.1742 135° Southeast 129 148 5,800 480 Climbing Aus ATC (RADAR)
10:29PM -24.8324 150.1922 136° Southeast 127 146 6,100 480 Climbing Aus ATC (RADAR)
10:29PM -24.8514 150.2126 136° Southeast 127 146 6,500 480 Climbing Aus ATC (RADAR)
10:30PM -24.8618 150.2235 136° Southeast 126 145 6,700 480 Climbing Aus ATC (RADAR)
10:30PM -24.8762 150.2393 135° Southeast 125 144 7,000 180 Climbing Aus ATC (RADAR)
10:31PM -24.9003 150.2621 139° Southeast 137 158 7,000  Level Aus ATC (RADAR)
10:32PM -24.9141 150.2753 139° Southeast 149 171 7,000  Level Aus ATC (RADAR)
10:32PM -24.9329 150.2935 139° Southeast 153 176 7,000  Level Aus ATC (RADAR)
10:33PM -24.9613 150.3213 138° Southeast 164 189 7,000  Level Aus ATC (RADAR)
10:34PM -24.9844 150.3434 139° Southeast 163 188 7,000  Level Aus ATC (RADAR)
10:35PM -25.0144 150.3731 138° Southeast 159 183 7,000  Level Aus ATC (RADAR)
10:35PM -25.0282 150.3863 139° Southeast 157 181 7,000  Level Aus ATC (RADAR)
10:36PM -25.0473 150.4057 137° Southeast 159 183 7,000  Level Aus ATC (RADAR)
10:36PM -25.0757 150.4326 139° Southeast 160 184 7,000  Level Aus ATC (RADAR)
10:37PM -25.0839 150.4403 140° Southeast 158 182 7,000  Level Aus ATC (RADAR)
10:37PM -25.1066 150.4616 140° Southeast 159 183 7,000  Level Aus ATC (RADAR)
10:38PM -25.1311 150.4846 140° Southeast 154 177 7,000  Level Aus ATC (RADAR)
10:39PM -25.1500 150.5025 139° Southeast 153 176 7,000  Level Aus ATC (RADAR)
10:39PM -25.1751 150.5255 140° Southeast 155 178 7,000  Level Aus ATC (RADAR)
10:40PM -25.1892 150.5385 140° Southeast 158 182 7,000  Level Aus ATC (RADAR)
10:40PM -25.2102 150.5557 143° Southeast 160 184 7,000  Level Aus ATC (RADAR)
10:41PM -25.2452 150.5842 144° Southeast 156 180 7,000  Level Aus ATC (RADAR)
10:42PM -25.2540 150.5913 144° Southeast 156 180 7,000  Level Aus ATC (RADAR)
10:43PM -25.2835 150.6147 144° Southeast 157 181 7,000  Level Aus ATC (RADAR)
10:43PM -25.2980 150.6261 145° Southeast 155 178 7,000  Level Aus ATC (RADAR)
10:44PM -25.3188 150.6430 144° Southeast 158 182 7,000 -120 Level Aus ATC (RADAR)
10:44PM -25.3461 150.6690 139° Southeast 153 176 6,900 -120 Descending Aus ATC (RADAR)
10:45PM -25.3650 150.6893 136° Southeast 158 182 6,900  Level Aus ATC (RADAR)
10:46PM -25.3916 150.7162 138° Southeast 156 180 6,900  Level Aus ATC (RADAR)
10:46PM -25.3993 150.7235 139° Southeast 152 175 6,900  Level Aus ATC (RADAR)
10:47PM -25.4217 150.7453 139° Southeast 144 166 6,900  Level Aus ATC (RADAR)
10:47PM -25.4412 150.7647 138° Southeast 141 162 6,900  Level Aus ATC (RADAR)
10:48PM -25.4580 150.7816 138° Southeast 139 160 6,900  Level Aus ATC (RADAR)
10:49PM -25.4801 150.8043 137° Southeast 146 168 6,900  Level Aus ATC (RADAR)
10:49PM -25.4927 150.8175 137° Southeast 149 171 6,900  Level Aus ATC (RADAR)
10:50PM -25.5110 150.8355 138° Southeast 151 174 6,900  Level Aus ATC (RADAR)
10:51PM -25.5366 150.8605 139° Southeast 146 168 6,900  Level Aus ATC (RADAR)
10:54PM -25.6717 150.9868 313° West 7,000  Climbing Aus ATC (Calculated)
10:54PM -25.6631 150.9765 139° Southeast 160 184 7,000  Level Aus ATC (RADAR)
10:55PM -25.6939 150.9941 153° Southeast 153 176 7,000  Level Aus ATC (RADAR)
10:56PM -25.7029 151.0009 146° Southeast 153 176 7,000  Level Aus ATC (RADAR)
10:56PM -25.7237 151.0153 148° Southeast 152 175 7,000  Level Aus ATC (RADAR)
10:56PM -25.7325 151.0221 145° Southeast 152 175 7,000  Level Aus ATC (RADAR)
10:59PM -25.8385 151.1243 139° Southeast 7,000  Level Aus ATC (Calculated)
11:00PM -25.8849 151.1689 139° Southeast 7,000  Level Aus ATC (Calculated)
11:02PM -25.9223 151.2052 139° Southeast  Level FlightAware Approximate
11:03PM -25.9532 151.2349 139° Southeast  Level FlightAware Approximate
11:03PM -25.9718 151.2529 139° Southeast 7,000  Level Aus ATC (Calculated)
11:04PM -25.9840 151.2647 139° Southeast  Level FlightAware Approximate
11:05PM -26.0123 151.2922 139° Southeast  Level FlightAware Approximate
11:05PM -26.0098 151.2897 139° Southeast 7,000  Level Aus ATC (Calculated)
11:06PM -26.0810 151.3587 139° Southeast 7,000  Level Aus ATC (Calculated)
11:08PM -26.1292 151.4055 139° Southeast  Level FlightAware Approximate
11:08PM -26.1433 151.4192 140° Southeast 7,000  Level Aus ATC (Calculated)
11:09PM -26.1978 151.4722 317° Northwest 7,000  Level Aus ATC (Calculated)
11:10PM -26.1787 151.4526 139° Southeast 166 191 7,000  Level Aus ATC (RADAR)
11:10PM -26.1981 151.4717 139° Southeast 155 178 7,000  Level Aus ATC (RADAR)
11:11PM -26.2259 151.5010 137° Southeast 162 186 7,000  Level Aus ATC (RADAR)
11:12PM -26.2398 151.5127 143° Southeast 155 178 7,000  Level Aus ATC (RADAR)
11:12PM -26.2626 151.5328 142° Southeast 156 180 7,000  Level Aus ATC (RADAR)
11:13PM -26.2816 151.5508 140° Southeast 153 176 7,000  Level Aus ATC (RADAR)
11:13PM -26.3014 151.5690 140° Southeast 156 180 7,000  Level Aus ATC (RADAR)
11:14PM -26.3265 151.5925 140° Southeast 155 178 7,000  Level Aus ATC (RADAR)
11:15PM -26.3406 151.6051 141° Southeast 156 180 7,000  Level Aus ATC (RADAR)
11:15PM -26.3596 151.6227 140° Southeast 151 174 7,000  Level Aus ATC (RADAR)
11:16PM -26.3877 151.6491 140° Southeast 155 178 7,000  Level Aus ATC (RADAR)
11:17PM -26.4070 151.6677 139° Southeast 156 180 7,000  Level Aus ATC (RADAR)
11:18PM -26.4458 151.7057 139° Southeast 157 181 7,000  Level Aus ATC (RADAR)
11:18PM -26.4549 151.7164 134° Southeast 147 169 7,000  Level Aus ATC (RADAR)
11:19PM -26.4738 151.7354 138° Southeast 156 180 7,000  Level Aus ATC (RADAR)
11:19PM -26.4975 151.7587 139° Southeast 149 171 7,000  Level Aus ATC (RADAR)
11:20PM -26.5159 151.7765 139° Southeast 149 171 7,000  Level Aus ATC (RADAR)
11:21PM -26.5395 151.8019 136° Southeast 152 175 7,000  Level Aus ATC (RADAR)
11:21PM -26.5553 151.8175 139° Southeast 150 173 7,000  Level Aus ATC (RADAR)
11:22PM -26.5733 151.8362 137° Southeast 152 175 7,000  Level Aus ATC (RADAR)
11:23PM -26.5999 151.8619 139° Southeast 150 173 7,000  Level Aus ATC (RADAR)
11:23PM -26.6166 151.8722 151° Southeast 158 182 7,000  Level Aus ATC (RADAR)
11:24PM -26.6377 151.8883 146° Southeast 158 182 7,000  Level Aus ATC (RADAR)
11:24PM -26.6648 151.9084 147° Southeast 155 178 7,000  Level Aus ATC (RADAR)
11:25PM -26.6858 151.9242 146° Southeast 155 178 7,000  Level Aus ATC (RADAR)
11:26PM -26.7125 151.9435 147° Southeast 150 173 7,000  Level Aus ATC (RADAR)
11:26PM -26.7255 151.9556 140° Southeast 147 169 7,000  Level Aus ATC (RADAR)
11:27PM -26.7473 151.9754 141° Southeast 150 173 7,000  Level Aus ATC (RADAR)
11:28PM -26.7812 152.0105 137° Southeast 153 176 7,000  Level Aus ATC (RADAR)
11:28PM -26.7921 152.0208 140° Southeast 153 176 7,000  Level Aus ATC (RADAR)
11:29PM -26.8137 152.0417 139° Southeast 152 175 7,000  Level Aus ATC (RADAR)
11:30PM -26.8378 152.0656 138° Southeast 153 176 7,000  Level Aus ATC (RADAR)
11:30PM -26.8572 152.0835 141° Southeast 152 175 7,000  Level Aus ATC (RADAR)
11:31PM -26.8890 152.1033 151° Southeast 154 177 7,000  Level Aus ATC (RADAR)
11:32PM -26.9048 152.1119 154° Southeast 152 175 7,000  Level Aus ATC (RADAR)
11:32PM -26.9271 152.1243 154° Southeast 152 175 7,000  Level Aus ATC (RADAR)
11:33PM -26.9581 152.1438 151° Southeast 151 174 7,000  Level Aus ATC (RADAR)
11:33PM -26.9740 152.1576 142° Southeast 145 167 7,000  Level Aus ATC (RADAR)
11:34PM -26.9938 152.1738 144° Southeast 150 173 7,000  Level Aus ATC (RADAR)
11:35PM -27.0177 152.1970 139° Southeast 152 175 7,000  Level Aus ATC (RADAR)
11:35PM -27.0361 152.2150 139° Southeast 150 173 7,000  Level Aus ATC (RADAR)
11:36PM -27.0629 152.2412 139° Southeast 151 174 7,000  Level Aus ATC (RADAR)
11:37PM -27.0762 152.2541 139° Southeast 150 173 7,000  Level Aus ATC (RADAR)
11:37PM -27.0926 152.2697 140° Southeast 153 176 7,000  Level Aus ATC (RADAR)
11:38PM -27.1321 152.3017 144° Southeast 150 173 7,000  Level Aus ATC (RADAR)
11:39PM -27.1622 152.3223 149° Southeast 150 173 7,000  Level Aus ATC (RADAR)
11:40PM -27.1902 152.3415 149° Southeast 155 178 7,000  Level Aus ATC (RADAR)
11:40PM -27.2114 152.3560 149° Southeast 153 176 7,000  Level Aus ATC (RADAR)
11:41PM -27.2442 152.3798 147° Southeast 150 173 7,000  Level Aus ATC (RADAR)
11:42PM -27.2534 152.3865 147° Southeast 153 176 7,000  Level Aus ATC (RADAR)
11:42PM -27.2743 152.4019 147° Southeast 154 177 7,000  Level Aus ATC (RADAR)
11:43PM -27.3064 152.4271 145° Southeast 154 177 7,000  Level Aus ATC (RADAR)
11:44PM -27.3209 152.4386 145° Southeast 152 175 7,000  Level Aus ATC (RADAR)
11:44PM -27.3440 152.4574 144° Southeast 154 177 7,000  Level Aus ATC (RADAR)
11:45PM -27.3671 152.4763 144° Southeast 153 176 7,000  Level Aus ATC (RADAR)
11:45PM -27.3874 152.4933 143° Southeast 154 177 7,000 -120 Level Aus ATC (RADAR)
11:46PM -27.4160 152.5178 143° Southeast 155 178 6,900 -300 Descending Aus ATC (RADAR)
11:47PM -27.4246 152.5269 137° Southeast 162 186 6,700 -720 Descending Aus ATC (RADAR)
11:47PM -27.4436 152.5490 134° Southeast 165 190 6,300 -660 Descending Aus ATC (RADAR)
11:48PM -27.4805 152.5897 136° Southeast 168 193 5,700 -600 Descending Aus ATC (RADAR)
11:48PM -27.4903 152.5979 143° Southeast 170 196 5,500 -660 Descending Aus ATC (RADAR)
11:49PM -27.5233 152.6239 145° Southeast 171 197 5,000 -600 Descending Aus ATC (RADAR)
11:50PM -27.5402 152.6363 147° Southeast 171 197 4,800 -600 Descending Aus ATC (RADAR)
11:50PM -27.5643 152.6528 149° Southeast 171 197 4,400 -660 Descending Aus ATC (RADAR)
11:51PM -27.5954 152.6748 148° Southeast 174 200 4,000 -660 Descending Aus ATC (RADAR)
11:52PM -27.6184 152.6927 145° Southeast 171 197 3,600 -600 Descending Aus ATC (RADAR)
11:52PM -27.6425 152.7105 147° Southeast 179 206 3,300 -600 Descending Aus ATC (RADAR)
11:53PM -27.6611 152.7329 133° Southeast 174 200 2,900 -600 Descending Aus ATC (RADAR)
11:53PM -27.6546 152.7683 78° East 186 214 2,600 -540 Descending Aus ATC (RADAR)
11:54PM -27.6404 152.8071 68° East 176 203 2,200 -600 Descending Aus ATC (RADAR)
11:55PM -27.6317 152.8329 69° East 174 200 1,900 -660 Descending Aus ATC (RADAR)
11:55PM -27.6207 152.8618 67° East 170 196 1,500 -300 Descending Aus ATC (RADAR)
11:56PM -27.6056 152.8964 64° Northeast 162 186 1,500 60 Level Aus ATC (RADAR)
11:57PM -27.5949 152.9221 65° Northeast 155 178 1,600 -120 Climbing Aus ATC (RADAR)
11:57PM -27.5654 152.9461 36° Northeast 159 183 1,400 -480 Descending Aus ATC (RADAR)
11:58PM -27.5608 152.9599 69° East 155 178 1,100 -1,020 Descending Aus ATC (RADAR)
11:58PM -27.5701 152.9891 110° East 122 140 300 -1,080 Descending Aus ATC (RADAR)